Time;durP1;ratioP1;P1;durP2;ratioP2;P2;SDS_P1;SDS_P2;PMS_P1;PMS_P2;Temp;Humidity;BMP_temperature;BMP_pressure;BME280_temperature;BME280_humidity;BME280_pressure;Samples;Min_cycle;Max_cycle;Signal;HPM_P1;HPM_P2
2022/03/15 00:00:22;;;;;;;34.55;18.27;;;;;;;;;;6222433;23;20000;-89
2022/03/15 00:02:49;;;;;;;34.78;18.92;;;;;;;;;;6196198;23;20005;-88
2022/03/15 00:05:16;;;;;;;30.40;17.25;;;;;;;;;;6222115;23;20468;-88
2022/03/15 00:07:43;;;;;;;32.92;18.13;;;;;;;;;;6222776;23;20016;-87
2022/03/15 00:10:10;;;;;;;33.65;17.38;;;;;;;;;;6222468;23;20068;-88
2022/03/15 00:12:36;;;;;;;31.35;19.08;;;;;;;;;;6222719;23;20012;-88
2022/03/15 00:15:02;;;;;;;31.25;17.05;;;;;;;;;;6222428;23;20008;-89
2022/03/15 00:17:33;;;;;;;41.83;19.77;;;;;;;;;;6222716;23;20115;-88
2022/03/15 00:19:59;;;;;;;58.35;28.15;;;;;;;;;;6196264;23;20013;-88
2022/03/15 00:22:25;;;;;;;40.88;21.83;;;;;;;;;;6222494;23;20019;-87
2022/03/15 00:24:51;;;;;;;39.38;19.27;;;;;;;;;;6222333;23;20370;-88
2022/03/15 00:27:18;;;;;;;33.60;18.35;;;;;;;;;;6222430;23;20059;-89
2022/03/15 00:29:46;;;;;;;36.38;18.88;;;;;;;;;;6222380;23;20302;-89
2022/03/15 00:32:19;;;;;;;35.92;18.92;;;;;;;;;;6221166;23;20000;-87
2022/03/15 00:34:47;;;;;;;34.65;17.70;;;;;;;;;;6221277;23;20073;-89
2022/03/15 00:37:13;;;;;;;37.13;19.02;;;;;;;;;;6222043;23;20363;-89
2022/03/15 00:39:39;;;;;;;29.48;16.83;;;;;;;;;;6195294;23;20051;-89
2022/03/15 00:42:06;;;;;;;28.42;16.55;;;;;;;;;;6222070;23;20001;-89
2022/03/15 00:44:32;;;;;;;28.55;16.45;;;;;;;;;;6222285;23;20003;-90
2022/03/15 00:46:58;;;;;;;38.92;21.05;;;;;;;;;;6221706;23;19996;-89
2022/03/15 00:49:24;;;;;;;40.03;21.63;;;;;;;;;;6221947;23;20013;-88
2022/03/15 00:51:51;;;;;;;40.70;20.60;;;;;;;;;;6221700;23;20364;-88
2022/03/15 00:54:17;;;;;;;36.92;18.83;;;;;;;;;;6221926;23;20024;-88
2022/03/15 00:56:43;;;;;;;27.80;16.92;;;;;;;;;;6221912;23;20355;-89
2022/03/15 00:59:09;;;;;;;31.35;16.15;;;;;;;;;;6221688;23;20001;-90
2022/03/15 01:01:36;;;;;;;31.02;17.55;;;;;;;;;;6195485;23;20005;-88
2022/03/15 01:04:03;;;;;;;31.27;17.00;;;;;;;;;;6221565;23;20390;-88
2022/03/15 01:06:29;;;;;;;29.95;17.33;;;;;;;;;;6221643;23;20004;-89
2022/03/15 01:08:55;;;;;;;35.08;18.98;;;;;;;;;;6221582;23;20301;-89
2022/03/15 01:11:21;;;;;;;34.75;19.27;;;;;;;;;;6195601;23;20051;-89
2022/03/15 01:13:47;;;;;;;40.17;21.80;;;;;;;;;;6222130;23;20263;-89
2022/03/15 01:19:20;;;;;;;48.45;24.20;;;;;;;;;;6221844;23;20032;-89
2022/03/15 01:21:46;;;;;;;48.33;22.90;;;;;;;;;;6221686;23;19997;-88
2022/03/15 01:24:12;;;;;;;51.80;23.65;;;;;;;;;;6221436;23;20001;-89
2022/03/15 01:26:38;;;;;;;43.63;21.08;;;;;;;;;;6221630;23;19997;-88
2022/03/15 01:29:04;;;;;;;40.40;19.65;;;;;;;;;;6221896;23;20005;-91
2022/03/15 01:31:31;;;;;;;31.90;18.33;;;;;;;;;;6221665;23;20028;-91
2022/03/15 01:33:57;;;;;;;37.13;19.67;;;;;;;;;;6221747;23;20004;-89
2022/03/15 01:36:23;;;;;;;39.70;21.27;;;;;;;;;;6221692;23;20005;-91
2022/03/15 01:38:52;;;;;;;35.33;19.85;;;;;;;;;;6195248;23;20004;-90
2022/03/15 01:41:18;;;;;;;40.35;20.48;;;;;;;;;;6221859;23;20015;-91
2022/03/15 01:43:46;;;;;;;38.85;21.13;;;;;;;;;;6221519;23;20000;-90
2022/03/15 01:49:16;;;;;;;28.75;16.77;;;;;;;;;;6221491;23;20011;-90
2022/03/15 01:51:45;;;;;;;31.50;16.38;;;;;;;;;;6221853;23;20011;-90
2022/03/15 01:54:12;;;;;;;30.88;16.73;;;;;;;;;;6221383;23;20004;-90
2022/03/15 01:56:42;;;;;;;28.75;15.93;;;;;;;;;;6221314;23;20003;-90
2022/03/15 01:59:09;;;;;;;30.05;17.10;;;;;;;;;;6221753;23;20028;-91
2022/03/15 02:04:39;;;;;;;32.10;18.33;;;;;;;;;;6220962;23;20043;-89
2022/03/15 02:07:06;;;;;;;32.22;17.80;;;;;;;;;;6221218;23;20001;-89
2022/03/15 02:09:32;;;;;;;30.48;16.80;;;;;;;;;;6221272;23;20363;-89
2022/03/15 02:11:58;;;;;;;30.52;16.80;;;;;;;;;;6221447;23;20008;-89
2022/03/15 02:14:25;;;;;;;27.60;16.45;;;;;;;;;;6221618;23;20009;-89
2022/03/15 02:16:51;;;;;;;28.58;17.00;;;;;;;;;;6194881;23;20008;-90
2022/03/15 02:19:18;;;;;;;29.67;16.50;;;;;;;;;;6221527;23;20005;-89
2022/03/15 02:21:44;;;;;;;28.38;16.27;;;;;;;;;;6195264;23;20001;-88
2022/03/15 02:24:10;;;;;;;29.33;17.63;;;;;;;;;;6221488;23;20078;-90
2022/03/15 02:26:36;;;;;;;30.98;16.05;;;;;;;;;;6221436;23;20003;-88
2022/03/15 02:29:02;;;;;;;35.90;19.15;;;;;;;;;;6221416;23;20007;-88
2022/03/15 02:34:31;;;;;;;31.20;17.25;;;;;;;;;;6221033;23;20012;-88
2022/03/15 02:36:58;;;;;;;35.72;17.67;;;;;;;;;;6220937;23;20003;-90
2022/03/15 02:39:24;;;;;;;38.17;18.15;;;;;;;;;;6221308;23;20009;-89
2022/03/15 02:41:50;;;;;;;34.30;18.40;;;;;;;;;;6221476;23;20300;-90
2022/03/15 02:44:16;;;;;;;37.75;19.88;;;;;;;;;;6221252;23;19997;-89
2022/03/15 02:46:43;;;;;;;35.60;19.30;;;;;;;;;;6221125;23;20004;-89
2022/03/15 02:49:09;;;;;;;39.85;19.02;;;;;;;;;;6221386;23;20004;-89
2022/03/15 02:51:36;;;;;;;33.85;18.23;;;;;;;;;;6221212;23;20022;-89
2022/03/15 02:54:07;;;;;;;36.00;18.23;;;;;;;;;;6221236;23;20004;-88
2022/03/15 02:56:35;;;;;;;36.90;18.07;;;;;;;;;;6220972;23;20016;-90
2022/03/15 02:59:03;;;;;;;35.33;18.70;;;;;;;;;;6194603;23;20254;-89
2022/03/15 03:04:45;;;;;;;38.92;18.85;;;;;;;;;;6220568;23;20054;-90
2022/03/15 03:07:12;;;;;;;34.58;18.23;;;;;;;;;;6191050;23;20364;-90
2022/03/15 03:09:38;;;;;;;32.38;17.98;;;;;;;;;;6190778;23;20001;-88
2022/03/15 03:12:04;;;;;;;33.17;18.30;;;;;;;;;;6190737;23;20005;-89
2022/03/15 03:14:30;;;;;;;32.45;18.10;;;;;;;;;;6191114;23;20005;-89
2022/03/15 03:16:56;;;;;;;32.85;18.52;;;;;;;;;;6191132;23;20005;-89
2022/03/15 03:19:23;;;;;;;36.45;19.60;;;;;;;;;;6191120;23;20001;-89
2022/03/15 03:21:49;;;;;;;45.65;21.45;;;;;;;;;;6191189;23;20001;-89
2022/03/15 03:24:21;;;;;;;37.97;19.88;;;;;;;;;;6165329;23;20008;-89
2022/03/15 03:26:47;;;;;;;41.28;21.17;;;;;;;;;;6191075;23;20001;-89
2022/03/15 03:29:15;;;;;;;42.03;20.40;;;;;;;;;;6191049;23;20037;-89
2022/03/15 03:31:59;;;;;;;39.17;19.67;;;;;;;;;;6190807;23;20084;-89
2022/03/15 03:34:25;;;;;;;35.47;18.33;;;;;;;;;;6190284;23;20048;-88
2022/03/15 03:36:51;;;;;;;35.75;18.60;;;;;;;;;;6190460;23;20032;-90
2022/03/15 03:39:17;;;;;;;32.60;17.42;;;;;;;;;;6164643;23;20381;-89
2022/03/15 03:41:43;;;;;;;29.75;17.25;;;;;;;;;;6164610;23;20024;-89
2022/03/15 03:44:09;;;;;;;35.25;18.52;;;;;;;;;;6190931;23;20020;-90
2022/03/15 03:46:35;;;;;;;36.20;18.42;;;;;;;;;;6190796;23;20001;-90
2022/03/15 03:49:01;;;;;;;41.42;19.42;;;;;;;;;;6190712;23;20019;-89
2022/03/15 03:51:28;;;;;;;37.22;19.67;;;;;;;;;;6164771;23;20009;-89
2022/03/15 03:53:54;;;;;;;38.13;19.60;;;;;;;;;;6190702;23;20368;-90
2022/03/15 03:56:20;;;;;;;35.13;19.50;;;;;;;;;;6190282;23;20359;-88
2022/03/15 03:58:46;;;;;;;34.08;18.45;;;;;;;;;;6164538;23;20032;-89
2022/03/15 04:01:12;;;;;;;38.30;19.63;;;;;;;;;;6164671;23;20005;-91
2022/03/15 04:03:38;;;;;;;39.92;19.35;;;;;;;;;;6190281;23;20044;-89
2022/03/15 04:06:06;;;;;;;32.95;18.92;;;;;;;;;;6207570;23;20009;-90
2022/03/15 04:08:32;;;;;;;35.60;19.02;;;;;;;;;;6196061;23;20295;-89
2022/03/15 04:10:59;;;;;;;36.45;18.20;;;;;;;;;;6195927;23;20004;-88
2022/03/15 04:13:26;;;;;;;34.42;18.00;;;;;;;;;;6222336;23;20000;-89
2022/03/15 04:15:53;;;;;;;30.23;17.35;;;;;;;;;;6222731;23;20012;-90
2022/03/15 04:18:19;;;;;;;33.33;18.02;;;;;;;;;;6222643;23;20021;-89
2022/03/15 04:20:45;;;;;;;36.25;19.55;;;;;;;;;;6222654;23;20043;-89
2022/03/15 04:23:11;;;;;;;45.08;23.13;;;;;;;;;;6222317;23;20371;-89
2022/03/15 04:25:38;;;;;;;37.30;19.42;;;;;;;;;;6221807;23;20439;-88
2022/03/15 04:28:05;;;;;;;28.23;16.10;;;;;;;;;;6222636;23;20047;-89
2022/03/15 04:36:20;;;;;;;27.35;15.18;;;;;;;;;;6221981;23;20007;-90
2022/03/15 04:38:46;;;;;;;30.25;15.95;;;;;;;;;;6222061;23;20368;-90
2022/03/15 04:41:13;;;;;;;27.25;15.77;;;;;;;;;;6222445;23;20001;-89
2022/03/15 04:43:39;;;;;;;30.42;16.48;;;;;;;;;;6196221;23;20051;-89
2022/03/15 04:46:06;;;;;;;33.58;16.60;;;;;;;;;;6195784;23;20372;-90
2022/03/15 04:48:32;;;;;;;30.00;16.40;;;;;;;;;;6222270;23;20020;-90
2022/03/15 04:50:58;;;;;;;40.60;20.58;;;;;;;;;;6221956;23;20088;-91
2022/03/15 04:53:24;;;;;;;38.78;21.10;;;;;;;;;;6223122;23;20023;-90
2022/03/15 04:55:50;;;;;;;37.25;19.83;;;;;;;;;;6222331;23;20012;-90
2022/03/15 04:58:16;;;;;;;36.00;18.10;;;;;;;;;;6221695;23;20088;-89
2022/03/15 05:01:00;;;;;;;57.95;20.50;;;;;;;;;;6221975;23;20001;-91
2022/03/15 05:03:26;;;;;;;41.08;17.88;;;;;;;;;;6222324;23;20005;-88
2022/03/15 05:05:52;;;;;;;34.63;19.35;;;;;;;;;;6221277;23;20044;-89
2022/03/15 05:08:19;;;;;;;35.97;18.77;;;;;;;;;;6221606;23;20032;-90
2022/03/15 05:13:29;;;;;;;32.80;18.23;;;;;;;;;;6222120;23;20027;-90
2022/03/15 05:15:55;;;;;;;36.08;17.88;;;;;;;;;;6195710;23;20023;-90
2022/03/15 05:18:23;;;;;;;32.45;16.60;;;;;;;;;;6221570;23;20008;-91
2022/03/15 05:20:49;;;;;;;33.17;17.48;;;;;;;;;;6195453;23;20026;-90
2022/03/15 05:23:15;;;;;;;29.95;17.33;;;;;;;;;;6222075;23;20023;-91
2022/03/15 05:25:42;;;;;;;33.63;18.00;;;;;;;;;;6222192;23;20047;-88
2022/03/15 05:28:09;;;;;;;40.88;17.90;;;;;;;;;;6195473;23;20008;-90
2022/03/15 05:30:35;;;;;;;29.48;17.42;;;;;;;;;;6221825;23;20000;-91
2022/03/15 05:33:01;;;;;;;36.13;18.67;;;;;;;;;;6195412;23;20005;-92
2022/03/15 05:35:27;;;;;;;34.70;16.40;;;;;;;;;;6222195;23;20020;-89
2022/03/15 05:37:53;;;;;;;35.13;17.00;;;;;;;;;;6195457;23;20088;-91
2022/03/15 05:40:20;;;;;;;30.92;16.92;;;;;;;;;;6195290;23;20011;-90
2022/03/15 05:42:46;;;;;;;36.28;18.70;;;;;;;;;;6221569;23;20071;-90
2022/03/15 05:45:13;;;;;;;39.40;20.25;;;;;;;;;;6222084;23;20294;-90
2022/03/15 05:47:39;;;;;;;40.80;21.77;;;;;;;;;;6222032;23;20000;-91
2022/03/15 05:50:06;;;;;;;44.65;23.85;;;;;;;;;;6221399;23;20374;-90
2022/03/15 05:52:32;;;;;;;40.70;22.35;;;;;;;;;;6221214;23;20007;-90
2022/03/15 05:54:58;;;;;;;41.03;21.02;;;;;;;;;;6221881;23;20020;-91
2022/03/15 05:57:24;;;;;;;38.63;21.25;;;;;;;;;;6195212;23;20009;-90
2022/03/15 05:59:50;;;;;;;38.80;20.45;;;;;;;;;;6221692;23;20007;-91
2022/03/15 06:02:17;;;;;;;39.30;19.92;;;;;;;;;;6221640;23;20066;-90
2022/03/15 06:04:45;;;;;;;36.17;19.58;;;;;;;;;;6195040;23;20016;-90
2022/03/15 06:07:11;;;;;;;39.17;19.20;;;;;;;;;;6195229;23;20022;-90
2022/03/15 06:09:37;;;;;;;32.85;17.48;;;;;;;;;;6221426;23;20001;-90
2022/03/15 06:12:03;;;;;;;37.25;18.60;;;;;;;;;;6221424;23;20001;-90
2022/03/15 06:14:29;;;;;;;34.20;17.40;;;;;;;;;;6195094;23;20012;-91
2022/03/15 06:16:55;;;;;;;35.50;18.92;;;;;;;;;;6220689;23;20040;-89
2022/03/15 06:19:21;;;;;;;36.25;19.90;;;;;;;;;;6221500;23;20043;-91
2022/03/15 06:21:47;;;;;;;39.05;20.33;;;;;;;;;;6221188;23;19996;-89
2022/03/15 06:24:13;;;;;;;35.53;19.10;;;;;;;;;;6194757;23;20032;-89
2022/03/15 06:26:41;;;;;;;33.92;18.20;;;;;;;;;;6220948;23;20012;-91
2022/03/15 06:29:07;;;;;;;33.42;17.55;;;;;;;;;;6221488;23;20074;-90
2022/03/15 06:31:34;;;;;;;29.48;16.63;;;;;;;;;;6220640;23;20004;-89
2022/03/15 06:34:00;;;;;;;29.90;16.17;;;;;;;;;;6194780;23;20036;-90
2022/03/15 06:36:27;;;;;;;28.77;16.23;;;;;;;;;;6194873;23;20051;-90
2022/03/15 06:38:53;;;;;;;32.30;17.13;;;;;;;;;;6220861;23;20387;-90
2022/03/15 06:41:20;;;;;;;30.05;16.60;;;;;;;;;;6221337;23;20000;-89
2022/03/15 06:43:46;;;;;;;25.80;16.55;;;;;;;;;;6220901;23;20000;-90
2022/03/15 06:46:12;;;;;;;37.88;22.63;;;;;;;;;;6221321;23;20005;-90
2022/03/15 06:48:38;;;;;;;37.13;21.88;;;;;;;;;;6221109;23;20011;-89
2022/03/15 06:51:04;;;;;;;33.67;18.60;;;;;;;;;;6221338;23;20228;-89
2022/03/15 06:53:31;;;;;;;30.65;17.10;;;;;;;;;;6220993;23;20168;-90
2022/03/15 06:55:57;;;;;;;29.42;16.63;;;;;;;;;;6221415;23;20028;-90
2022/03/15 06:58:23;;;;;;;34.10;16.30;;;;;;;;;;6220933;23;20014;-92
2022/03/15 07:00:49;;;;;;;24.45;14.85;;;;;;;;;;6220915;23;20410;-90
2022/03/15 07:03:15;;;;;;;25.75;15.20;;;;;;;;;;6194513;23;20079;-91
2022/03/15 07:05:41;;;;;;;36.30;18.60;;;;;;;;;;6220903;23;20016;-89
2022/03/15 07:08:08;;;;;;;28.05;17.02;;;;;;;;;;6220944;23;20000;-89
2022/03/15 07:10:34;;;;;;;30.88;16.75;;;;;;;;;;6221314;23;20001;-90
2022/03/15 07:13:01;;;;;;;32.95;18.45;;;;;;;;;;6220808;23;20000;-89
2022/03/15 07:15:27;;;;;;;36.72;20.73;;;;;;;;;;6220919;23;20080;-89
2022/03/15 07:17:54;;;;;;;32.92;18.30;;;;;;;;;;6221237;23;20005;-90
2022/03/15 07:20:21;;;;;;;31.00;18.50;;;;;;;;;;6194548;23;20067;-90
2022/03/15 07:22:47;;;;;;;28.95;17.30;;;;;;;;;;6221371;23;20005;-89
2022/03/15 07:25:14;;;;;;;28.10;15.60;;;;;;;;;;6220974;23;20008;-90
2022/03/15 07:27:40;;;;;;;24.75;14.48;;;;;;;;;;6220723;23;20001;-90
2022/03/15 07:30:06;;;;;;;28.40;15.90;;;;;;;;;;6194647;23;20008;-89
2022/03/15 07:32:32;;;;;;;29.63;16.77;;;;;;;;;;6221029;23;20284;-89
2022/03/15 07:34:59;;;;;;;29.90;15.32;;;;;;;;;;6221142;23;20013;-89
2022/03/15 07:37:25;;;;;;;29.45;15.77;;;;;;;;;;6195053;23;20043;-88
2022/03/15 07:39:51;;;;;;;37.28;17.15;;;;;;;;;;6220703;23;20001;-88
2022/03/15 07:42:18;;;;;;;32.03;16.67;;;;;;;;;;6222018;23;20052;-89
2022/03/15 07:44:45;;;;;;;29.15;15.68;;;;;;;;;;6222954;23;20378;-88
2022/03/15 07:47:14;;;;;;;23.75;14.02;;;;;;;;;;6223077;23;20024;-91
2022/03/15 07:49:40;;;;;;;24.00;14.15;;;;;;;;;;6222889;23;20394;-86
2022/03/15 07:52:07;;;;;;;27.40;15.43;;;;;;;;;;6222913;23;20007;-85
2022/03/15 07:54:34;;;;;;;24.52;13.35;;;;;;;;;;6222417;23;20008;-86
2022/03/15 07:57:00;;;;;;;20.90;13.45;;;;;;;;;;6196320;23;20039;-87
2022/03/15 07:59:26;;;;;;;25.02;14.60;;;;;;;;;;6222355;23;20434;-87
2022/03/15 08:01:52;;;;;;;25.77;14.63;;;;;;;;;;6222336;23;20359;-86
2022/03/15 08:04:18;;;;;;;23.13;14.27;;;;;;;;;;6196188;23;20009;-86
2022/03/15 08:06:44;;;;;;;19.98;12.50;;;;;;;;;;6222230;23;20013;-86
2022/03/15 08:09:11;;;;;;;23.42;12.40;;;;;;;;;;6222757;23;20012;-87
2022/03/15 08:11:37;;;;;;;22.60;12.10;;;;;;;;;;6196174;23;20332;-85
2022/03/15 08:14:04;;;;;;;23.77;12.52;;;;;;;;;;6195460;23;20004;-88
2022/03/15 08:16:30;;;;;;;19.42;11.90;;;;;;;;;;6222652;23;20059;-88
2022/03/15 08:18:56;;;;;;;18.25;11.63;;;;;;;;;;6195987;23;20020;-87
2022/03/15 08:21:23;;;;;;;20.15;12.40;;;;;;;;;;6222786;23;20049;-87
2022/03/15 08:23:49;;;;;;;23.23;12.35;;;;;;;;;;6221997;23;20355;-88
2022/03/15 08:26:15;;;;;;;21.88;12.75;;;;;;;;;;6221918;23;20019;-87
2022/03/15 08:28:42;;;;;;;25.45;13.98;;;;;;;;;;6222409;23;20008;-87
2022/03/15 08:31:08;;;;;;;32.25;11.50;;;;;;;;;;6221969;23;20008;-86
2022/03/15 08:33:34;;;;;;;18.17;11.30;;;;;;;;;;6222438;23;20004;-86
2022/03/15 08:36:00;;;;;;;18.17;11.15;;;;;;;;;;6222645;23;20016;-86
2022/03/15 08:38:28;;;;;;;19.98;11.77;;;;;;;;;;6222254;23;20259;-85
2022/03/15 08:40:55;;;;;;;18.52;10.77;;;;;;;;;;6222384;23;20013;-86
2022/03/15 08:43:21;;;;;;;22.42;11.55;;;;;;;;;;6221965;23;19996;-83
2022/03/15 08:45:47;;;;;;;22.33;10.80;;;;;;;;;;6222000;23;20016;-83
2022/03/15 08:48:13;;;;;;;15.38;10.20;;;;;;;;;;6221748;23;20431;-83
2022/03/15 08:50:39;;;;;;;15.82;9.90;;;;;;;;;;6221682;23;20028;-84
2022/03/15 08:53:05;;;;;;;18.58;10.75;;;;;;;;;;6221034;23;20025;-84
2022/03/15 08:55:31;;;;;;;18.27;11.30;;;;;;;;;;6221570;23;20004;-85
2022/03/15 08:57:58;;;;;;;14.82;9.15;;;;;;;;;;6195685;23;20009;-85
2022/03/15 09:00:24;;;;;;;19.60;10.02;;;;;;;;;;6222045;23;20422;-84
2022/03/15 09:02:50;;;;;;;14.93;8.75;;;;;;;;;;6221654;23;20005;-85
2022/03/15 09:05:19;;;;;;;19.90;12.02;;;;;;;;;;6221781;23;20012;-85
2022/03/15 09:07:46;;;;;;;26.50;12.85;;;;;;;;;;6221605;23;20004;-85
2022/03/15 09:10:12;;;;;;;21.45;11.15;;;;;;;;;;6222495;23;20291;-85
2022/03/15 09:12:38;;;;;;;13.20;8.57;;;;;;;;;;6222560;23;20303;-86
2022/03/15 09:15:05;;;;;;;13.13;8.73;;;;;;;;;;6221642;23;20046;-89
2022/03/15 09:17:31;;;;;;;14.02;8.15;;;;;;;;;;6222192;23;20004;-89
2022/03/15 09:19:57;;;;;;;12.80;7.88;;;;;;;;;;6195871;23;20091;-86
2022/03/15 09:22:23;;;;;;;17.67;9.60;;;;;;;;;;6222076;23;20000;-89
2022/03/15 09:24:49;;;;;;;15.45;9.85;;;;;;;;;;6222117;23;20016;-89
2022/03/15 09:27:15;;;;;;;14.57;9.02;;;;;;;;;;6221724;23;20001;-89
2022/03/15 09:29:41;;;;;;;15.45;8.30;;;;;;;;;;6195479;23;20012;-88
2022/03/15 09:32:08;;;;;;;9.27;6.20;;;;;;;;;;6195533;23;20005;-89
2022/03/15 09:34:35;;;;;;;10.82;6.22;;;;;;;;;;6221782;23;20004;-88
2022/03/15 09:37:01;;;;;;;7.75;5.28;;;;;;;;;;6221887;23;20074;-90
2022/03/15 09:39:27;;;;;;;11.13;6.15;;;;;;;;;;6221996;23;20390;-89
2022/03/15 09:41:55;;;;;;;19.63;9.95;;;;;;;;;;6221541;23;20001;-89
2022/03/15 09:44:22;;;;;;;19.55;10.98;;;;;;;;;;6221465;23;20005;-89
2022/03/15 09:46:51;;;;;;;14.75;7.45;;;;;;;;;;6195273;23;20051;-90
2022/03/15 09:49:18;;;;;;;12.95;6.20;;;;;;;;;;6221562;23;20023;-89
2022/03/15 09:51:45;;;;;;;9.85;6.28;;;;;;;;;;6222025;23;20005;-89
2022/03/15 09:54:13;;;;;;;13.98;6.60;;;;;;;;;;6221686;23;20047;-89
2022/03/15 09:56:39;;;;;;;9.45;5.85;;;;;;;;;;6195656;23;20004;-88
2022/03/15 09:59:16;;;;;;;10.52;6.13;;;;;;;;;;6221132;23;20005;-89
2022/03/15 10:01:42;;;;;;;12.48;6.45;;;;;;;;;;6221420;23;20394;-89
2022/03/15 10:04:08;;;;;;;11.65;7.07;;;;;;;;;;6221472;23;20008;-88
2022/03/15 10:06:38;;;;;;;8.50;5.70;;;;;;;;;;6221193;23;20017;-88
2022/03/15 10:09:05;;;;;;;9.55;6.00;;;;;;;;;;6195240;23;20049;-88
2022/03/15 10:11:31;;;;;;;9.45;5.25;;;;;;;;;;6221460;23;20375;-88
2022/03/15 10:13:58;;;;;;;11.50;4.72;;;;;;;;;;6220847;23;20008;-88
2022/03/15 10:16:30;;;;;;;8.02;5.32;;;;;;;;;;6221966;23;20115;-89
2022/03/15 10:18:57;;;;;;;;;;;;;;;;;;6221940;23;20390;-88
2022/03/15 10:21:26;;;;;;;13.93;6.25;;;;;;;;;;6195567;23;19942;-89
2022/03/15 10:23:55;;;;;;;9.45;6.00;;;;;;;;;;6221079;23;20024;-88
2022/03/15 10:26:23;;;;;;;19.60;6.57;;;;;;;;;;6221466;23;20282;-89
2022/03/15 10:28:49;;;;;;;13.13;4.95;;;;;;;;;;6221297;23;20004;-88
2022/03/15 10:31:17;;;;;;;13.32;5.78;;;;;;;;;;6221389;23;20004;-88
2022/03/15 10:33:43;;;;;;;8.90;5.43;;;;;;;;;;6221358;23;20064;-88
2022/03/15 10:36:16;;;;;;;15.27;7.75;;;;;;;;;;6221310;23;20011;-88
2022/03/15 10:38:46;;;;;;;11.50;5.90;;;;;;;;;;6220675;23;20294;-89
2022/03/15 10:41:14;;;;;;;9.75;5.05;;;;;;;;;;6220702;23;20023;-87
2022/03/15 10:43:41;;;;;;;13.07;6.55;;;;;;;;;;6221228;23;20007;-88
2022/03/15 10:46:09;;;;;;;14.18;6.15;;;;;;;;;;6221179;23;20001;-88
2022/03/15 10:49:12;;;;;;;9.20;5.43;;;;;;;;;;6221065;23;20005;-89
2022/03/15 10:51:38;;;;;;;7.95;5.88;;;;;;;;;;6194663;23;20005;-89
2022/03/15 10:54:06;;;;;;;8.80;5.68;;;;;;;;;;6221147;23;20413;-89
2022/03/15 10:56:34;;;;;;;12.75;7.05;;;;;;;;;;6221328;23;20005;-88
2022/03/15 10:59:06;;;;;;;9.52;5.97;;;;;;;;;;6221129;23;20019;-89
2022/03/15 11:01:39;;;;;;;16.15;7.30;;;;;;;;;;6220824;23;20280;-88
2022/03/15 11:04:07;;;;;;;12.15;7.22;;;;;;;;;;6220885;23;20288;-89
2022/03/15 11:06:37;;;;;;;11.57;7.10;;;;;;;;;;6194592;23;20009;-89
2022/03/15 11:09:15;;;;;;;12.45;7.57;;;;;;;;;;6220749;23;20004;-89
2022/03/15 11:11:42;;;;;;;12.98;6.63;;;;;;;;;;6221266;23;20009;-88
2022/03/15 11:14:10;;;;;;;14.02;7.65;;;;;;;;;;6220673;23;20479;-92
2022/03/15 11:16:37;;;;;;;22.85;12.45;;;;;;;;;;6195795;23;20143;-92
2022/03/15 11:19:04;;;;;;;10.63;7.32;;;;;;;;;;6223125;23;20009;-87
2022/03/15 11:21:33;;;;;;;12.93;7.25;;;;;;;;;;6196570;23;20001;-90
2022/03/15 11:24:00;;;;;;;17.13;9.60;;;;;;;;;;6196668;23;20004;-88
2022/03/15 11:26:29;;;;;;;9.15;6.60;;;;;;;;;;6196903;23;20008;-88
2022/03/15 11:28:56;;;;;;;11.98;7.03;;;;;;;;;;6223281;23;20346;-88
2022/03/15 11:31:23;;;;;;;16.77;7.25;;;;;;;;;;6223166;23;20028;-89
2022/03/15 11:33:50;;;;;;;10.13;5.72;;;;;;;;;;6195945;23;20009;-89
2022/03/15 11:36:17;;;;;;;12.52;6.78;;;;;;;;;;6223235;23;20254;-87
2022/03/15 11:38:43;;;;;;;20.02;10.10;;;;;;;;;;6222801;23;20363;-89
2022/03/15 11:41:10;;;;;;;14.98;7.68;;;;;;;;;;6223060;23;20016;-87
2022/03/15 11:44:00;;;;;;;9.95;6.85;;;;;;;;;;6196546;23;20024;-87
2022/03/15 11:46:34;;;;;;;12.25;7.63;;;;;;;;;;6102120;23;20003;-88
2022/03/15 11:49:03;;;;;;;11.93;6.88;;;;;;;;;;6101973;23;20378;-89
2022/03/15 11:51:31;;;;;;;17.58;10.35;;;;;;;;;;6102032;23;20006;-88
2022/03/15 11:53:57;;;;;;;19.30;9.02;;;;;;;;;;6077909;23;20074;-87
2022/03/15 11:56:31;;;;;;;10.55;6.78;;;;;;;;;;6101936;23;20049;-88
2022/03/15 11:58:58;;;;;;;12.55;7.80;;;;;;;;;;6101753;23;20026;-88
2022/03/15 12:01:25;;;;;;;15.98;6.88;;;;;;;;;;6077928;23;20006;-87
2022/03/15 12:03:55;;;;;;;10.02;6.00;;;;;;;;;;6102067;23;20440;-88
2022/03/15 12:06:25;;;;;;;11.68;6.97;;;;;;;;;;6058544;23;20069;-88
2022/03/15 12:08:56;;;;;;;13.32;7.28;;;;;;;;;;6073156;23;20274;-88
2022/03/15 12:11:30;;;;;;;24.83;6.97;;;;;;;;;;6072950;23;20047;-88
2022/03/15 12:14:09;;;;;;;11.50;6.38;;;;;;;;;;6073023;23;20020;-87
2022/03/15 12:16:38;;;;;;;17.83;8.80;;;;;;;;;;6072899;23;20011;-88
2022/03/15 12:19:13;;;;;;;16.13;9.20;;;;;;;;;;6071775;23;20130;-88
2022/03/15 12:21:51;;;;;;;19.63;9.88;;;;;;;;;;6072984;23;20003;-87
2022/03/15 12:24:18;;;;;;;13.52;6.88;;;;;;;;;;6153469;23;20404;-88
2022/03/15 12:26:59;;;;;;;17.35;8.85;;;;;;;;;;6189929;23;20391;-87
2022/03/15 12:29:27;;;;;;;20.02;10.10;;;;;;;;;;6192599;23;20009;-88
2022/03/15 12:31:53;;;;;;;12.65;7.70;;;;;;;;;;6192295;23;20005;-88
2022/03/15 12:34:20;;;;;;;22.63;10.43;;;;;;;;;;6192341;23;20032;-88
2022/03/15 12:36:49;;;;;;;11.27;6.45;;;;;;;;;;6192457;23;20064;-89
2022/03/15 12:39:19;;;;;;;9.93;6.10;;;;;;;;;;6192017;23;20079;-88
2022/03/15 12:41:46;;;;;;;11.90;6.88;;;;;;;;;;6192412;23;20072;-89
2022/03/15 12:44:12;;;;;;;16.90;8.15;;;;;;;;;;6190858;23;20012;-88
2022/03/15 12:46:39;;;;;;;42.50;20.08;;;;;;;;;;6191878;23;20080;-88
2022/03/15 12:49:09;;;;;;;14.68;8.05;;;;;;;;;;6192158;23;20030;-89
2022/03/15 12:51:39;;;;;;;13.45;7.80;;;;;;;;;;6192466;23;20001;-89
2022/03/15 12:54:06;;;;;;;14.48;8.48;;;;;;;;;;6190968;23;20005;-90
2022/03/15 12:56:32;;;;;;;15.55;7.75;;;;;;;;;;6191905;23;20015;-88
2022/03/15 12:58:59;;;;;;;12.73;8.13;;;;;;;;;;6192122;23;19997;-88
2022/03/15 13:01:26;;;;;;;14.63;8.70;;;;;;;;;;6192076;23;20020;-90
2022/03/15 13:03:54;;;;;;;17.02;9.15;;;;;;;;;;6191759;23;20376;-89
2022/03/15 13:06:21;;;;;;;16.15;8.05;;;;;;;;;;6211827;23;20008;-88
2022/03/15 13:08:59;;;;;;;16.05;8.95;;;;;;;;;;6195597;23;20008;-88
2022/03/15 13:11:26;;;;;;;17.13;9.75;;;;;;;;;;6222140;23;20001;-88
2022/03/15 13:13:52;;;;;;;16.10;8.32;;;;;;;;;;6194863;23;20024;-88
2022/03/15 13:16:21;;;;;;;18.90;10.65;;;;;;;;;;6221744;23;20455;-88
2022/03/15 13:18:48;;;;;;;14.63;9.43;;;;;;;;;;6221779;23;20072;-89
2022/03/15 13:21:14;;;;;;;26.20;14.90;;;;;;;;;;6195500;23;20005;-88
2022/03/15 13:23:45;;;;;;;16.73;10.20;;;;;;;;;;6221592;23;20024;-87
2022/03/15 13:26:16;;;;;;;13.18;9.40;;;;;;;;;;6222289;23;20374;-89
2022/03/15 13:28:47;;;;;;;15.38;9.40;;;;;;;;;;6195025;23;20096;-88
2022/03/15 13:31:14;;;;;;;21.05;8.60;;;;;;;;;;6221957;23;20076;-88
2022/03/15 13:33:45;;;;;;;13.77;9.13;;;;;;;;;;6221767;23;20005;-88
2022/03/15 13:36:24;;;;;;;50.25;24.05;;;;;;;;;;6195837;23;20009;-87
2022/03/15 13:38:51;;;;;;;29.13;16.55;;;;;;;;;;6194991;23;20001;-88
2022/03/15 13:41:26;;;;;;;14.38;8.98;;;;;;;;;;6221913;23;20004;-87
2022/03/15 13:43:53;;;;;;;11.82;8.02;;;;;;;;;;6195456;23;20012;-87
2022/03/15 13:46:20;;;;;;;15.52;8.32;;;;;;;;;;6221822;23;20016;-88
2022/03/15 13:48:48;;;;;;;14.15;8.55;;;;;;;;;;6221697;23;20005;-88
2022/03/15 13:51:15;;;;;;;13.50;8.02;;;;;;;;;;6221888;23;20005;-88
2022/03/15 13:53:41;;;;;;;18.17;7.68;;;;;;;;;;6221711;23;20012;-88
2022/03/15 13:56:10;;;;;;;16.20;8.98;;;;;;;;;;6221541;23;20004;-88
2022/03/15 13:58:36;;;;;;;24.98;11.75;;;;;;;;;;6221530;23;20237;-88
2022/03/15 14:01:06;;;;;;;15.25;9.13;;;;;;;;;;6195116;23;20004;-88
2022/03/15 14:03:34;;;;;;;14.35;8.63;;;;;;;;;;6194544;23;19997;-88
2022/03/15 14:06:03;;;;;;;14.48;9.07;;;;;;;;;;6221446;23;20043;-88
2022/03/15 14:08:29;;;;;;;11.38;7.57;;;;;;;;;;6221749;23;20000;-88
2022/03/15 14:10:55;;;;;;;19.75;10.23;;;;;;;;;;6220990;23;20022;-88
2022/03/15 14:13:32;;;;;;;13.63;9.00;;;;;;;;;;6221187;23;20027;-89
2022/03/15 14:16:07;;;;;;;15.13;8.68;;;;;;;;;;6221639;23;20015;-88
2022/03/15 14:18:34;;;;;;;14.85;9.75;;;;;;;;;;6220682;23;20007;-88
2022/03/15 14:21:01;;;;;;;17.02;11.02;;;;;;;;;;6195477;23;20348;-90
2022/03/15 14:23:27;;;;;;;20.52;10.00;;;;;;;;;;6221026;23;20001;-87
2022/03/15 14:25:58;;;;;;;22.63;11.23;;;;;;;;;;6221077;23;20012;-87
2022/03/15 14:28:24;;;;;;;31.08;11.38;;;;;;;;;;6221447;23;20000;-90
2022/03/15 14:31:00;;;;;;;18.58;10.38;;;;;;;;;;6194751;23;20272;-88
2022/03/15 14:33:26;;;;;;;22.85;9.50;;;;;;;;;;6220951;23;20599;-88
2022/03/15 14:35:59;;;;;;;20.48;11.38;;;;;;;;;;6221516;23;20364;-88
2022/03/15 14:38:25;;;;;;;34.15;16.48;;;;;;;;;;6194683;23;20011;-88
2022/03/15 14:40:56;;;;;;;41.95;16.35;;;;;;;;;;6220888;23;20004;-88
2022/03/15 14:43:26;;;;;;;35.45;14.27;;;;;;;;;;6221356;23;20000;-93
2022/03/15 14:45:54;;;;;;;29.05;15.27;;;;;;;;;;6221374;23;20255;-88